sensor_id;sensor_type;location;lat;lon;timestamp;temperature;humidity
17599;DHT22;8918;52.092;5.232;2023-06-24T00:01:28;19.40;99.90
17599;DHT22;8918;52.092;5.232;2023-06-24T00:03:54;19.30;99.90
17599;DHT22;8918;52.092;5.232;2023-06-24T00:06:20;19.40;99.90
17599;DHT22;8918;52.092;5.232;2023-06-24T00:08:46;19.40;99.90
17599;DHT22;8918;52.092;5.232;2023-06-24T00:11:12;19.40;99.90
17599;DHT22;8918;52.092;5.232;2023-06-24T00:13:39;19.40;99.90
17599;DHT22;8918;52.092;5.232;2023-06-24T00:16:05;19.40;99.90
17599;DHT22;8918;52.092;5.232;2023-06-24T00:18:32;19.50;99.90
17599;DHT22;8918;52.092;5.232;2023-06-24T00:20:58;19.50;99.90
17599;DHT22;8918;52.092;5.232;2023-06-24T00:23:24;19.40;99.90
17599;DHT22;8918;52.092;5.232;2023-06-24T00:25:52;19.40;99.90
17599;DHT22;8918;52.092;5.232;2023-06-24T00:28:19;19.30;99.90
17599;DHT22;8918;52.092;5.232;2023-06-24T00:30:44;19.30;99.90
17599;DHT22;8918;52.092;5.232;2023-06-24T00:33:10;19.20;99.90
17599;DHT22;8918;52.092;5.232;2023-06-24T00:35:39;19.20;99.90
17599;DHT22;8918;52.092;5.232;2023-06-24T00:38:04;19.10;99.90
17599;DHT22;8918;52.092;5.232;2023-06-24T00:40:30;19.10;99.90
17599;DHT22;8918;52.092;5.232;2023-06-24T00:42:56;19.10;99.90
17599;DHT22;8918;52.092;5.232;2023-06-24T00:45:24;19.00;99.90
17599;DHT22;8918;52.092;5.232;2023-06-24T00:47:50;19.00;99.90
17599;DHT22;8918;52.092;5.232;2023-06-24T00:50:17;19.00;99.90
17599;DHT22;8918;52.092;5.232;2023-06-24T00:52:43;19.00;99.90
17599;DHT22;8918;52.092;5.232;2023-06-24T00:55:10;19.00;99.90
17599;DHT22;8918;52.092;5.232;2023-06-24T00:57:39;18.90;99.90
17599;DHT22;8918;52.092;5.232;2023-06-24T01:00:05;18.90;99.90
17599;DHT22;8918;52.092;5.232;2023-06-24T01:02:38;18.90;99.90
17599;DHT22;8918;52.092;5.232;2023-06-24T01:05:04;19.00;99.90
17599;DHT22;8918;52.092;5.232;2023-06-24T01:07:34;18.90;99.90
17599;DHT22;8918;52.092;5.232;2023-06-24T01:10:04;18.90;99.90
17599;DHT22;8918;52.092;5.232;2023-06-24T01:12:38;18.90;99.90
17599;DHT22;8918;52.092;5.232;2023-06-24T01:15:06;18.90;99.90
17599;DHT22;8918;52.092;5.232;2023-06-24T01:20:41;18.80;99.90
17599;DHT22;8918;52.092;5.232;2023-06-24T01:36:39;18.50;99.90
17599;DHT22;8918;52.092;5.232;2023-06-24T01:39:09;18.50;99.90
17599;DHT22;8918;52.092;5.232;2023-06-24T01:41:40;18.50;99.90
17599;DHT22;8918;52.092;5.232;2023-06-24T01:44:09;18.50;99.90
17599;DHT22;8918;52.092;5.232;2023-06-24T01:46:35;18.50;99.90
17599;DHT22;8918;52.092;5.232;2023-06-24T01:49:04;18.40;99.90
17599;DHT22;8918;52.092;5.232;2023-06-24T01:51:32;18.40;99.90
17599;DHT22;8918;52.092;5.232;2023-06-24T01:54:06;18.30;99.90
17599;DHT22;8918;52.092;5.232;2023-06-24T01:56:33;18.30;99.90
17599;DHT22;8918;52.092;5.232;2023-06-24T01:59:02;18.20;99.90
17599;DHT22;8918;52.092;5.232;2023-06-24T02:01:31;18.10;99.90
17599;DHT22;8918;52.092;5.232;2023-06-24T02:03:59;18.10;99.90
17599;DHT22;8918;52.092;5.232;2023-06-24T02:06:26;18.10;99.90
17599;DHT22;8918;52.092;5.232;2023-06-24T02:08:54;18.10;99.90
17599;DHT22;8918;52.092;5.232;2023-06-24T02:11:22;18.10;99.90
17599;DHT22;8918;52.092;5.232;2023-06-24T02:13:49;18.00;99.90
17599;DHT22;8918;52.092;5.232;2023-06-24T02:16:17;18.00;99.90
17599;DHT22;8918;52.092;5.232;2023-06-24T02:18:44;17.90;99.90
17599;DHT22;8918;52.092;5.232;2023-06-24T02:21:10;17.90;99.90
17599;DHT22;8918;52.092;5.232;2023-06-24T02:23:37;17.80;99.90
17599;DHT22;8918;52.092;5.232;2023-06-24T02:26:04;17.80;99.90
17599;DHT22;8918;52.092;5.232;2023-06-24T02:28:32;17.80;99.90
17599;DHT22;8918;52.092;5.232;2023-06-24T02:30:59;17.80;99.90
17599;DHT22;8918;52.092;5.232;2023-06-24T02:33:25;17.80;99.90
17599;DHT22;8918;52.092;5.232;2023-06-24T02:35:52;17.80;99.90
17599;DHT22;8918;52.092;5.232;2023-06-24T02:38:18;17.80;99.90
17599;DHT22;8918;52.092;5.232;2023-06-24T02:40:45;17.70;99.90
17599;DHT22;8918;52.092;5.232;2023-06-24T02:43:11;17.80;99.90
17599;DHT22;8918;52.092;5.232;2023-06-24T02:45:37;17.80;99.90
17599;DHT22;8918;52.092;5.232;2023-06-24T02:48:04;17.80;99.90
17599;DHT22;8918;52.092;5.232;2023-06-24T02:50:32;17.70;99.90
17599;DHT22;8918;52.092;5.232;2023-06-24T02:52:58;17.70;99.90
17599;DHT22;8918;52.092;5.232;2023-06-24T02:55:24;17.60;99.90
17599;DHT22;8918;52.092;5.232;2023-06-24T02:57:51;17.60;99.90
17599;DHT22;8918;52.092;5.232;2023-06-24T03:00:17;17.60;99.90
17599;DHT22;8918;52.092;5.232;2023-06-24T03:02:43;17.50;99.90
17599;DHT22;8918;52.092;5.232;2023-06-24T03:05:11;17.50;99.90
17599;DHT22;8918;52.092;5.232;2023-06-24T03:07:37;17.40;99.90
17599;DHT22;8918;52.092;5.232;2023-06-24T03:10:04;17.40;99.90
17599;DHT22;8918;52.092;5.232;2023-06-24T03:12:31;17.40;99.90
17599;DHT22;8918;52.092;5.232;2023-06-24T03:14:57;17.40;99.90
17599;DHT22;8918;52.092;5.232;2023-06-24T03:17:22;17.40;99.90
17599;DHT22;8918;52.092;5.232;2023-06-24T03:19:50;17.40;99.90
17599;DHT22;8918;52.092;5.232;2023-06-24T03:22:15;17.40;99.90
17599;DHT22;8918;52.092;5.232;2023-06-24T03:24:42;17.30;99.90
17599;DHT22;8918;52.092;5.232;2023-06-24T03:27:08;17.20;99.90
17599;DHT22;8918;52.092;5.232;2023-06-24T03:29:33;17.30;99.90
17599;DHT22;8918;52.092;5.232;2023-06-24T03:31:59;17.30;99.90
17599;DHT22;8918;52.092;5.232;2023-06-24T03:34:25;17.20;99.90
17599;DHT22;8918;52.092;5.232;2023-06-24T03:36:53;17.20;99.90
17599;DHT22;8918;52.092;5.232;2023-06-24T03:39:20;17.20;99.90
17599;DHT22;8918;52.092;5.232;2023-06-24T03:41:46;17.10;99.90
17599;DHT22;8918;52.092;5.232;2023-06-24T03:44:11;17.10;99.90
17599;DHT22;8918;52.092;5.232;2023-06-24T03:46:37;17.00;99.90
17599;DHT22;8918;52.092;5.232;2023-06-24T03:49:03;17.10;99.90
17599;DHT22;8918;52.092;5.232;2023-06-24T03:51:28;17.10;99.90
17599;DHT22;8918;52.092;5.232;2023-06-24T03:53:54;17.20;99.90
17599;DHT22;8918;52.092;5.232;2023-06-24T03:56:20;17.20;99.90
17599;DHT22;8918;52.092;5.232;2023-06-24T03:58:45;17.20;99.90
17599;DHT22;8918;52.092;5.232;2023-06-24T04:01:11;17.10;99.90
17599;DHT22;8918;52.092;5.232;2023-06-24T04:03:36;17.10;99.90
17599;DHT22;8918;52.092;5.232;2023-06-24T04:06:02;17.10;99.90
17599;DHT22;8918;52.092;5.232;2023-06-24T04:08:28;17.10;99.90
17599;DHT22;8918;52.092;5.232;2023-06-24T04:10:57;17.20;99.90
17599;DHT22;8918;52.092;5.232;2023-06-24T04:13:25;17.30;99.90
17599;DHT22;8918;52.092;5.232;2023-06-24T04:15:51;17.20;99.90
17599;DHT22;8918;52.092;5.232;2023-06-24T04:18:17;17.20;99.90
17599;DHT22;8918;52.092;5.232;2023-06-24T04:20:42;17.20;99.90
17599;DHT22;8918;52.092;5.232;2023-06-24T04:23:08;17.20;99.90
17599;DHT22;8918;52.092;5.232;2023-06-24T04:25:36;17.20;99.90
17599;DHT22;8918;52.092;5.232;2023-06-24T04:28:03;17.10;99.90
17599;DHT22;8918;52.092;5.232;2023-06-24T04:30:30;17.10;99.90
17599;DHT22;8918;52.092;5.232;2023-06-24T04:32:56;17.10;99.90
17599;DHT22;8918;52.092;5.232;2023-06-24T04:35:21;17.20;99.90
17599;DHT22;8918;52.092;5.232;2023-06-24T04:37:47;17.20;99.90
17599;DHT22;8918;52.092;5.232;2023-06-24T04:40:16;17.20;99.90
17599;DHT22;8918;52.092;5.232;2023-06-24T04:42:41;17.20;99.90
17599;DHT22;8918;52.092;5.232;2023-06-24T04:45:07;17.30;99.90
17599;DHT22;8918;52.092;5.232;2023-06-24T04:47:33;17.30;99.90
17599;DHT22;8918;52.092;5.232;2023-06-24T04:49:58;17.40;99.90
17599;DHT22;8918;52.092;5.232;2023-06-24T04:52:24;17.40;99.90
17599;DHT22;8918;52.092;5.232;2023-06-24T04:54:50;17.40;99.90
17599;DHT22;8918;52.092;5.232;2023-06-24T04:57:31;17.50;99.90
17599;DHT22;8918;52.092;5.232;2023-06-24T04:59:57;17.50;99.90
17599;DHT22;8918;52.092;5.232;2023-06-24T05:02:24;17.50;99.90
17599;DHT22;8918;52.092;5.232;2023-06-24T05:04:51;17.60;99.90
17599;DHT22;8918;52.092;5.232;2023-06-24T05:07:16;17.60;99.90
17599;DHT22;8918;52.092;5.232;2023-06-24T05:09:42;17.60;99.90
17599;DHT22;8918;52.092;5.232;2023-06-24T05:12:09;17.60;99.90
17599;DHT22;8918;52.092;5.232;2023-06-24T05:14:35;17.70;99.90
17599;DHT22;8918;52.092;5.232;2023-06-24T05:17:02;17.70;99.90
17599;DHT22;8918;52.092;5.232;2023-06-24T05:19:28;17.80;99.90
17599;DHT22;8918;52.092;5.232;2023-06-24T05:21:53;17.90;99.90
17599;DHT22;8918;52.092;5.232;2023-06-24T05:24:19;17.90;99.90
17599;DHT22;8918;52.092;5.232;2023-06-24T05:26:47;18.00;99.90
17599;DHT22;8918;52.092;5.232;2023-06-24T05:29:12;18.00;99.90
17599;DHT22;8918;52.092;5.232;2023-06-24T05:31:39;18.10;99.90
17599;DHT22;8918;52.092;5.232;2023-06-24T05:34:05;18.10;99.90
17599;DHT22;8918;52.092;5.232;2023-06-24T05:36:31;18.20;99.90
17599;DHT22;8918;52.092;5.232;2023-06-24T05:38:56;18.20;99.90
17599;DHT22;8918;52.092;5.232;2023-06-24T05:41:22;18.30;99.90
17599;DHT22;8918;52.092;5.232;2023-06-24T05:43:48;18.30;99.90
17599;DHT22;8918;52.092;5.232;2023-06-24T05:46:14;18.40;99.90
17599;DHT22;8918;52.092;5.232;2023-06-24T05:48:39;18.40;99.90
17599;DHT22;8918;52.092;5.232;2023-06-24T05:51:05;18.50;99.90
17599;DHT22;8918;52.092;5.232;2023-06-24T05:53:39;18.50;99.90
17599;DHT22;8918;52.092;5.232;2023-06-24T05:56:05;18.60;99.90
17599;DHT22;8918;52.092;5.232;2023-06-24T05:58:31;18.70;99.90
17599;DHT22;8918;52.092;5.232;2023-06-24T06:00:57;18.70;99.90
17599;DHT22;8918;52.092;5.232;2023-06-24T06:03:24;18.80;99.90
17599;DHT22;8918;52.092;5.232;2023-06-24T06:05:49;18.80;99.90
17599;DHT22;8918;52.092;5.232;2023-06-24T06:08:15;19.00;99.90
17599;DHT22;8918;52.092;5.232;2023-06-24T06:10:40;19.00;99.90
17599;DHT22;8918;52.092;5.232;2023-06-24T06:13:06;19.10;99.90
17599;DHT22;8918;52.092;5.232;2023-06-24T06:15:32;19.10;99.90
17599;DHT22;8918;52.092;5.232;2023-06-24T06:17:58;19.20;99.90
17599;DHT22;8918;52.092;5.232;2023-06-24T06:20:23;19.30;99.90
17599;DHT22;8918;52.092;5.232;2023-06-24T06:22:49;19.30;99.90
17599;DHT22;8918;52.092;5.232;2023-06-24T06:25:16;19.40;99.90
17599;DHT22;8918;52.092;5.232;2023-06-24T06:27:42;19.50;99.90
17599;DHT22;8918;52.092;5.232;2023-06-24T06:30:08;19.50;99.90
17599;DHT22;8918;52.092;5.232;2023-06-24T06:32:33;19.60;99.90
17599;DHT22;8918;52.092;5.232;2023-06-24T06:34:59;19.70;99.90
17599;DHT22;8918;52.092;5.232;2023-06-24T06:37:25;19.70;99.90
17599;DHT22;8918;52.092;5.232;2023-06-24T06:39:50;19.80;99.90
17599;DHT22;8918;52.092;5.232;2023-06-24T06:42:16;19.90;99.90
17599;DHT22;8918;52.092;5.232;2023-06-24T06:44:41;19.90;99.90
17599;DHT22;8918;52.092;5.232;2023-06-24T06:47:07;20.00;99.90
17599;DHT22;8918;52.092;5.232;2023-06-24T06:49:33;20.00;99.90
17599;DHT22;8918;52.092;5.232;2023-06-24T06:51:58;20.10;99.90
17599;DHT22;8918;52.092;5.232;2023-06-24T06:54:24;20.20;99.90
17599;DHT22;8918;52.092;5.232;2023-06-24T06:56:49;20.30;99.90
17599;DHT22;8918;52.092;5.232;2023-06-24T06:59:15;20.30;99.90
17599;DHT22;8918;52.092;5.232;2023-06-24T07:01:40;20.30;99.90
17599;DHT22;8918;52.092;5.232;2023-06-24T07:04:06;20.40;99.90
17599;DHT22;8918;52.092;5.232;2023-06-24T07:06:31;20.40;99.90
17599;DHT22;8918;52.092;5.232;2023-06-24T07:08:58;20.50;99.90
17599;DHT22;8918;52.092;5.232;2023-06-24T07:11:24;20.60;99.90
17599;DHT22;8918;52.092;5.232;2023-06-24T07:13:50;20.60;99.90
17599;DHT22;8918;52.092;5.232;2023-06-24T07:16:17;20.70;99.90
17599;DHT22;8918;52.092;5.232;2023-06-24T07:18:42;20.80;99.90
17599;DHT22;8918;52.092;5.232;2023-06-24T07:21:08;20.90;99.90
17599;DHT22;8918;52.092;5.232;2023-06-24T07:23:33;21.00;99.90
17599;DHT22;8918;52.092;5.232;2023-06-24T07:25:59;21.00;99.90
17599;DHT22;8918;52.092;5.232;2023-06-24T07:28:25;21.10;99.90
17599;DHT22;8918;52.092;5.232;2023-06-24T07:30:50;21.10;99.90
17599;DHT22;8918;52.092;5.232;2023-06-24T07:33:16;21.20;99.90
17599;DHT22;8918;52.092;5.232;2023-06-24T07:35:42;21.30;99.90
17599;DHT22;8918;52.092;5.232;2023-06-24T07:38:07;21.30;99.90
17599;DHT22;8918;52.092;5.232;2023-06-24T07:40:33;21.40;99.90
17599;DHT22;8918;52.092;5.232;2023-06-24T07:42:58;21.50;99.90
17599;DHT22;8918;52.092;5.232;2023-06-24T07:45:24;21.60;99.90
17599;DHT22;8918;52.092;5.232;2023-06-24T07:47:50;21.60;99.90
17599;DHT22;8918;52.092;5.232;2023-06-24T07:50:16;21.60;99.90
17599;DHT22;8918;52.092;5.232;2023-06-24T07:52:42;21.70;99.90
17599;DHT22;8918;52.092;5.232;2023-06-24T07:55:07;21.80;99.90
17599;DHT22;8918;52.092;5.232;2023-06-24T07:57:33;21.90;99.90
17599;DHT22;8918;52.092;5.232;2023-06-24T07:59:59;21.90;99.90
17599;DHT22;8918;52.092;5.232;2023-06-24T08:02:24;22.00;99.90
17599;DHT22;8918;52.092;5.232;2023-06-24T08:04:50;22.10;99.90
17599;DHT22;8918;52.092;5.232;2023-06-24T08:07:16;22.10;99.90
17599;DHT22;8918;52.092;5.232;2023-06-24T08:09:42;22.20;99.90
17599;DHT22;8918;52.092;5.232;2023-06-24T08:12:08;22.30;99.90
17599;DHT22;8918;52.092;5.232;2023-06-24T08:14:33;22.30;99.90
17599;DHT22;8918;52.092;5.232;2023-06-24T08:17:00;22.40;99.90
17599;DHT22;8918;52.092;5.232;2023-06-24T08:19:26;22.50;99.90
17599;DHT22;8918;52.092;5.232;2023-06-24T08:21:51;22.60;99.90
17599;DHT22;8918;52.092;5.232;2023-06-24T08:24:17;22.60;99.90
17599;DHT22;8918;52.092;5.232;2023-06-24T08:26:43;22.60;99.90
17599;DHT22;8918;52.092;5.232;2023-06-24T08:29:08;22.70;99.90
17599;DHT22;8918;52.092;5.232;2023-06-24T08:31:34;22.70;99.90
17599;DHT22;8918;52.092;5.232;2023-06-24T08:34:00;22.70;99.90
17599;DHT22;8918;52.092;5.232;2023-06-24T08:36:28;22.90;99.90
17599;DHT22;8918;52.092;5.232;2023-06-24T08:38:54;22.80;99.90
17599;DHT22;8918;52.092;5.232;2023-06-24T08:41:20;22.90;99.90
17599;DHT22;8918;52.092;5.232;2023-06-24T08:43:46;22.90;99.90
17599;DHT22;8918;52.092;5.232;2023-06-24T08:46:13;23.00;99.90
17599;DHT22;8918;52.092;5.232;2023-06-24T08:48:43;23.10;99.90
17599;DHT22;8918;52.092;5.232;2023-06-24T08:51:11;23.20;99.90
17599;DHT22;8918;52.092;5.232;2023-06-24T08:53:38;23.30;99.90
17599;DHT22;8918;52.092;5.232;2023-06-24T08:56:07;23.40;99.90
17599;DHT22;8918;52.092;5.232;2023-06-24T08:58:33;23.40;99.90
17599;DHT22;8918;52.092;5.232;2023-06-24T09:01:00;23.50;99.90
17599;DHT22;8918;52.092;5.232;2023-06-24T09:03:26;23.50;99.90
17599;DHT22;8918;52.092;5.232;2023-06-24T09:05:51;23.60;99.90
17599;DHT22;8918;52.092;5.232;2023-06-24T09:08:17;23.70;99.90
17599;DHT22;8918;52.092;5.232;2023-06-24T09:10:43;23.70;99.90
17599;DHT22;8918;52.092;5.232;2023-06-24T09:13:09;23.90;99.90
17599;DHT22;8918;52.092;5.232;2023-06-24T09:15:36;23.90;99.90
17599;DHT22;8918;52.092;5.232;2023-06-24T09:18:03;24.00;99.90
17599;DHT22;8918;52.092;5.232;2023-06-24T09:20:30;24.10;99.90
17599;DHT22;8918;52.092;5.232;2023-06-24T09:23:00;24.10;99.90
17599;DHT22;8918;52.092;5.232;2023-06-24T09:25:27;24.20;99.90
17599;DHT22;8918;52.092;5.232;2023-06-24T09:27:52;24.40;99.90
17599;DHT22;8918;52.092;5.232;2023-06-24T09:30:19;24.40;99.90
17599;DHT22;8918;52.092;5.232;2023-06-24T09:32:46;24.50;99.90
17599;DHT22;8918;52.092;5.232;2023-06-24T09:35:13;24.60;99.90
17599;DHT22;8918;52.092;5.232;2023-06-24T09:37:38;24.70;99.90
17599;DHT22;8918;52.092;5.232;2023-06-24T09:40:05;24.80;99.90
17599;DHT22;8918;52.092;5.232;2023-06-24T09:42:32;24.80;99.90
17599;DHT22;8918;52.092;5.232;2023-06-24T09:44:57;24.90;99.90
17599;DHT22;8918;52.092;5.232;2023-06-24T09:47:23;24.90;99.90
17599;DHT22;8918;52.092;5.232;2023-06-24T09:49:53;25.00;99.90
17599;DHT22;8918;52.092;5.232;2023-06-24T09:52:20;25.00;99.90
17599;DHT22;8918;52.092;5.232;2023-06-24T09:54:47;25.10;99.90
17599;DHT22;8918;52.092;5.232;2023-06-24T09:57:15;25.20;99.90
17599;DHT22;8918;52.092;5.232;2023-06-24T09:59:43;25.20;99.90
17599;DHT22;8918;52.092;5.232;2023-06-24T10:02:13;25.20;99.90
17599;DHT22;8918;52.092;5.232;2023-06-24T10:04:40;25.20;99.90
17599;DHT22;8918;52.092;5.232;2023-06-24T10:07:05;25.30;99.90
17599;DHT22;8918;52.092;5.232;2023-06-24T10:09:31;25.40;99.90
17599;DHT22;8918;52.092;5.232;2023-06-24T10:11:57;25.60;99.90
17599;DHT22;8918;52.092;5.232;2023-06-24T10:14:23;25.70;99.90
17599;DHT22;8918;52.092;5.232;2023-06-24T10:16:48;25.80;99.90
17599;DHT22;8918;52.092;5.232;2023-06-24T10:19:20;25.70;99.90
17599;DHT22;8918;52.092;5.232;2023-06-24T10:21:58;25.80;99.90
17599;DHT22;8918;52.092;5.232;2023-06-24T10:24:35;25.90;99.90
17599;DHT22;8918;52.092;5.232;2023-06-24T10:27:06;25.90;99.90
17599;DHT22;8918;52.092;5.232;2023-06-24T10:29:38;25.90;99.90
17599;DHT22;8918;52.092;5.232;2023-06-24T10:32:07;26.00;99.90
17599;DHT22;8918;52.092;5.232;2023-06-24T10:34:47;26.10;99.90
17599;DHT22;8918;52.092;5.232;2023-06-24T10:37:21;26.20;99.90
17599;DHT22;8918;52.092;5.232;2023-06-24T10:40:04;26.40;99.90
17599;DHT22;8918;52.092;5.232;2023-06-24T10:42:42;26.60;99.90
17599;DHT22;8918;52.092;5.232;2023-06-24T10:47:35;26.90;99.90
17599;DHT22;8918;52.092;5.232;2023-06-24T10:50:01;26.90;99.90
17599;DHT22;8918;52.092;5.232;2023-06-24T10:52:26;27.00;99.90
17599;DHT22;8918;52.092;5.232;2023-06-24T10:54:53;27.00;99.90
17599;DHT22;8918;52.092;5.232;2023-06-24T10:57:23;27.00;99.90
17599;DHT22;8918;52.092;5.232;2023-06-24T10:59:50;27.00;99.90
17599;DHT22;8918;52.092;5.232;2023-06-24T11:02:20;27.10;99.90
17599;DHT22;8918;52.092;5.232;2023-06-24T11:04:50;27.20;99.90
17599;DHT22;8918;52.092;5.232;2023-06-24T11:07:20;27.30;99.90
17599;DHT22;8918;52.092;5.232;2023-06-24T11:09:51;27.30;99.90
17599;DHT22;8918;52.092;5.232;2023-06-24T11:12:17;27.40;99.90
17599;DHT22;8918;52.092;5.232;2023-06-24T11:14:43;27.40;99.90
17599;DHT22;8918;52.092;5.232;2023-06-24T11:17:09;27.30;99.90
17599;DHT22;8918;52.092;5.232;2023-06-24T11:19:35;27.10;99.90
17599;DHT22;8918;52.092;5.232;2023-06-24T11:22:05;27.00;99.90
17599;DHT22;8918;52.092;5.232;2023-06-24T11:24:32;27.00;99.90
17599;DHT22;8918;52.092;5.232;2023-06-24T11:26:57;27.00;99.90
17599;DHT22;8918;52.092;5.232;2023-06-24T11:29:23;27.00;99.90
17599;DHT22;8918;52.092;5.232;2023-06-24T11:31:50;26.90;99.90
17599;DHT22;8918;52.092;5.232;2023-06-24T11:34:16;26.80;99.90
17599;DHT22;8918;52.092;5.232;2023-06-24T11:36:42;26.90;99.90
17599;DHT22;8918;52.092;5.232;2023-06-24T11:39:08;26.90;99.90
17599;DHT22;8918;52.092;5.232;2023-06-24T11:41:33;26.90;99.90
17599;DHT22;8918;52.092;5.232;2023-06-24T11:43:59;27.00;99.90
17599;DHT22;8918;52.092;5.232;2023-06-24T11:46:29;27.10;99.90
17599;DHT22;8918;52.092;5.232;2023-06-24T11:51:30;27.40;99.90
17599;DHT22;8918;52.092;5.232;2023-06-24T11:54:04;27.50;99.90
17599;DHT22;8918;52.092;5.232;2023-06-24T11:56:41;27.60;99.90
17599;DHT22;8918;52.092;5.232;2023-06-24T11:59:15;27.80;99.90
17599;DHT22;8918;52.092;5.232;2023-06-24T12:01:44;27.90;99.90
17599;DHT22;8918;52.092;5.232;2023-06-24T12:04:13;28.00;99.90
17599;DHT22;8918;52.092;5.232;2023-06-24T12:06:40;28.10;99.90
17599;DHT22;8918;52.092;5.232;2023-06-24T12:09:07;28.00;99.90
17599;DHT22;8918;52.092;5.232;2023-06-24T12:11:33;28.00;99.90
17599;DHT22;8918;52.092;5.232;2023-06-24T12:13:59;28.10;99.90
17599;DHT22;8918;52.092;5.232;2023-06-24T12:16:24;28.10;99.90
17599;DHT22;8918;52.092;5.232;2023-06-24T12:18:52;28.20;99.90
17599;DHT22;8918;52.092;5.232;2023-06-24T12:21:18;28.20;99.90
17599;DHT22;8918;52.092;5.232;2023-06-24T12:23:44;28.30;99.90
17599;DHT22;8918;52.092;5.232;2023-06-24T12:26:09;28.30;99.90
17599;DHT22;8918;52.092;5.232;2023-06-24T12:28:35;28.40;99.90
17599;DHT22;8918;52.092;5.232;2023-06-24T12:31:01;28.50;99.90
17599;DHT22;8918;52.092;5.232;2023-06-24T12:33:26;28.70;99.90
17599;DHT22;8918;52.092;5.232;2023-06-24T12:35:52;28.70;99.90
17599;DHT22;8918;52.092;5.232;2023-06-24T12:38:17;28.70;99.90
17599;DHT22;8918;52.092;5.232;2023-06-24T12:40:43;28.80;99.90
17599;DHT22;8918;52.092;5.232;2023-06-24T12:43:10;28.90;99.90
17599;DHT22;8918;52.092;5.232;2023-06-24T12:45:36;28.90;99.90
17599;DHT22;8918;52.092;5.232;2023-06-24T12:48:02;28.90;99.90
17599;DHT22;8918;52.092;5.232;2023-06-24T12:50:28;29.00;99.90
17599;DHT22;8918;52.092;5.232;2023-06-24T12:52:57;29.00;99.90
17599;DHT22;8918;52.092;5.232;2023-06-24T12:55:22;29.00;99.90
17599;DHT22;8918;52.092;5.232;2023-06-24T12:57:48;29.00;99.90
17599;DHT22;8918;52.092;5.232;2023-06-24T13:00:14;29.00;99.90
17599;DHT22;8918;52.092;5.232;2023-06-24T13:02:40;29.00;99.90
17599;DHT22;8918;52.092;5.232;2023-06-24T13:05:06;29.00;99.90
17599;DHT22;8918;52.092;5.232;2023-06-24T13:07:31;28.80;99.90
17599;DHT22;8918;52.092;5.232;2023-06-24T13:09:57;28.80;99.90
17599;DHT22;8918;52.092;5.232;2023-06-24T13:12:24;28.90;99.90
17599;DHT22;8918;52.092;5.232;2023-06-24T13:14:50;28.80;99.90
17599;DHT22;8918;52.092;5.232;2023-06-24T13:17:16;28.70;99.90
17599;DHT22;8918;52.092;5.232;2023-06-24T13:19:41;28.80;99.90
17599;DHT22;8918;52.092;5.232;2023-06-24T13:22:07;28.90;99.90
17599;DHT22;8918;52.092;5.232;2023-06-24T13:24:32;28.90;99.90
17599;DHT22;8918;52.092;5.232;2023-06-24T13:26:58;28.50;99.90
17599;DHT22;8918;52.092;5.232;2023-06-24T13:29:24;28.50;99.90
17599;DHT22;8918;52.092;5.232;2023-06-24T13:31:49;28.40;99.90
17599;DHT22;8918;52.092;5.232;2023-06-24T13:34:15;28.30;99.90
17599;DHT22;8918;52.092;5.232;2023-06-24T13:36:40;28.40;99.90
17599;DHT22;8918;52.092;5.232;2023-06-24T13:39:08;28.50;99.90
17599;DHT22;8918;52.092;5.232;2023-06-24T13:41:34;28.40;99.90
17599;DHT22;8918;52.092;5.232;2023-06-24T13:44:01;28.60;99.90
17599;DHT22;8918;52.092;5.232;2023-06-24T13:46:28;28.60;99.90
17599;DHT22;8918;52.092;5.232;2023-06-24T13:48:54;28.70;99.90
17599;DHT22;8918;52.092;5.232;2023-06-24T13:51:20;28.90;99.90
17599;DHT22;8918;52.092;5.232;2023-06-24T13:53:49;28.90;99.90
17599;DHT22;8918;52.092;5.232;2023-06-24T13:56:17;28.90;99.90
17599;DHT22;8918;52.092;5.232;2023-06-24T13:58:43;29.00;99.90
17599;DHT22;8918;52.092;5.232;2023-06-24T14:01:09;28.90;99.90
17599;DHT22;8918;52.092;5.232;2023-06-24T14:03:34;29.00;99.90
17599;DHT22;8918;52.092;5.232;2023-06-24T14:06:00;29.20;99.90
17599;DHT22;8918;52.092;5.232;2023-06-24T14:08:27;29.20;99.90
17599;DHT22;8918;52.092;5.232;2023-06-24T14:10:54;29.20;99.90
17599;DHT22;8918;52.092;5.232;2023-06-24T14:13:20;29.20;99.90
17599;DHT22;8918;52.092;5.232;2023-06-24T14:15:45;29.00;99.90
17599;DHT22;8918;52.092;5.232;2023-06-24T14:18:11;29.20;99.90
17599;DHT22;8918;52.092;5.232;2023-06-24T14:20:37;29.40;99.90
17599;DHT22;8918;52.092;5.232;2023-06-24T14:23:03;29.50;99.90
17599;DHT22;8918;52.092;5.232;2023-06-24T14:25:29;29.60;99.90
17599;DHT22;8918;52.092;5.232;2023-06-24T14:27:55;29.70;99.90
17599;DHT22;8918;52.092;5.232;2023-06-24T14:30:20;29.70;99.90
17599;DHT22;8918;52.092;5.232;2023-06-24T14:32:46;29.60;99.90
17599;DHT22;8918;52.092;5.232;2023-06-24T14:35:11;29.60;99.90
17599;DHT22;8918;52.092;5.232;2023-06-24T14:37:37;29.70;99.90
17599;DHT22;8918;52.092;5.232;2023-06-24T14:40:03;29.60;99.90
17599;DHT22;8918;52.092;5.232;2023-06-24T14:42:29;29.60;99.90
17599;DHT22;8918;52.092;5.232;2023-06-24T14:44:55;29.80;99.90
17599;DHT22;8918;52.092;5.232;2023-06-24T14:47:20;29.70;99.90
17599;DHT22;8918;52.092;5.232;2023-06-24T14:49:46;29.60;99.90
17599;DHT22;8918;52.092;5.232;2023-06-24T14:52:11;29.70;99.90
17599;DHT22;8918;52.092;5.232;2023-06-24T14:54:37;29.60;99.90
17599;DHT22;8918;52.092;5.232;2023-06-24T14:57:03;29.60;99.90
17599;DHT22;8918;52.092;5.232;2023-06-24T14:59:28;29.70;99.90
17599;DHT22;8918;52.092;5.232;2023-06-24T15:01:54;29.60;99.90
17599;DHT22;8918;52.092;5.232;2023-06-24T15:04:20;29.70;99.90
17599;DHT22;8918;52.092;5.232;2023-06-24T15:06:45;29.70;99.90
17599;DHT22;8918;52.092;5.232;2023-06-24T15:09:11;29.60;99.90
17599;DHT22;8918;52.092;5.232;2023-06-24T15:11:37;29.80;99.90
17599;DHT22;8918;52.092;5.232;2023-06-24T15:14:02;30.10;99.90
17599;DHT22;8918;52.092;5.232;2023-06-24T15:16:28;30.20;99.90
17599;DHT22;8918;52.092;5.232;2023-06-24T15:18:53;30.10;99.90
17599;DHT22;8918;52.092;5.232;2023-06-24T15:21:19;30.10;99.90
17599;DHT22;8918;52.092;5.232;2023-06-24T15:23:46;30.10;99.90
17599;DHT22;8918;52.092;5.232;2023-06-24T15:26:12;30.10;99.90
17599;DHT22;8918;52.092;5.232;2023-06-24T15:28:37;30.20;99.90
17599;DHT22;8918;52.092;5.232;2023-06-24T15:31:03;30.10;99.90
17599;DHT22;8918;52.092;5.232;2023-06-24T15:33:29;30.10;99.90
17599;DHT22;8918;52.092;5.232;2023-06-24T15:35:54;30.00;99.90
17599;DHT22;8918;52.092;5.232;2023-06-24T15:38:20;30.20;99.90
17599;DHT22;8918;52.092;5.232;2023-06-24T15:40:46;30.20;99.90
17599;DHT22;8918;52.092;5.232;2023-06-24T15:43:12;30.30;99.90
17599;DHT22;8918;52.092;5.232;2023-06-24T15:45:39;30.60;99.90
17599;DHT22;8918;52.092;5.232;2023-06-24T15:48:04;30.70;99.90
17599;DHT22;8918;52.092;5.232;2023-06-24T15:50:31;30.80;99.90
17599;DHT22;8918;52.092;5.232;2023-06-24T15:52:56;30.60;99.90
17599;DHT22;8918;52.092;5.232;2023-06-24T15:55:22;30.60;99.90
17599;DHT22;8918;52.092;5.232;2023-06-24T15:57:48;31.00;99.90
17599;DHT22;8918;52.092;5.232;2023-06-24T16:00:14;31.10;99.90
17599;DHT22;8918;52.092;5.232;2023-06-24T16:02:40;31.30;99.90